Time;durP1;ratioP1;P1;durP2;ratioP2;P2;SDS_P1;SDS_P2;PMS_P1;PMS_P2;Temp;Humidity;BMP_temperature;BMP_pressure;BME280_temperature;BME280_humidity;BME280_pressure;Samples;Min_cycle;Max_cycle;Signal;HPM_P1;HPM_P2
2023/05/25 00:00:13;;;;;;;27.25;9.00;;;12.20;99.90;;;;;;5038934;28;20438;-79
2023/05/25 00:02:39;;;;;;;25.58;7.63;;;12.20;99.90;;;;;;5038253;28;20452;-78
2023/05/25 00:05:06;;;;;;;23.48;8.55;;;12.20;99.90;;;;;;5038329;28;20410;-79
2023/05/25 00:07:33;;;;;;;22.58;6.93;;;12.20;99.90;;;;;;5056643;28;20123;-79
2023/05/25 00:09:59;;;;;;;26.55;7.47;;;12.10;99.90;;;;;;5055438;28;20045;-79
2023/05/25 00:12:26;;;;;;;28.45;8.52;;;12.10;99.90;;;;;;5038639;28;20472;-79
2023/05/25 00:14:53;;;;;;;20.73;7.18;;;12.10;99.90;;;;;;5055817;28;20044;-78
2023/05/25 00:17:20;;;;;;;25.55;8.27;;;12.10;99.90;;;;;;5055198;28;20056;-79
2023/05/25 00:19:47;;;;;;;23.58;7.15;;;12.10;99.90;;;;;;5055698;28;20061;-79
2023/05/25 00:22:14;;;;;;;18.00;6.82;;;12.00;99.90;;;;;;5037708;28;20425;-79
2023/05/25 00:24:40;;;;;;;19.67;7.03;;;12.00;99.90;;;;;;5055391;28;20060;-79
2023/05/25 00:27:07;;;;;;;16.70;6.22;;;11.90;99.90;;;;;;5056018;28;20051;-78
2023/05/25 00:29:34;;;;;;;24.60;7.47;;;11.90;99.90;;;;;;5037388;28;20047;-79
2023/05/25 00:32:01;;;;;;;21.35;6.63;;;11.90;99.90;;;;;;5055927;28;20075;-79
2023/05/25 00:34:28;;;;;;;22.40;6.82;;;11.80;99.90;;;;;;5055260;28;20041;-78
2023/05/25 00:36:55;;;;;;;18.48;6.65;;;11.80;99.90;;;;;;5020813;28;20467;-78
2023/05/25 00:39:21;;;;;;;19.38;5.85;;;11.80;99.90;;;;;;5054588;28;20579;-78
2023/05/25 00:41:48;;;;;;;19.30;7.03;;;11.80;99.90;;;;;;5051155;28;20052;-79
2023/05/25 00:44:15;;;;;;;17.80;6.10;;;11.70;99.90;;;;;;5074247;28;20059;-79
2023/05/25 00:46:44;;;;;;;21.60;6.28;;;11.70;99.90;;;;;;5075299;28;20033;-78
2023/05/25 00:49:11;;;;;;;20.33;6.70;;;11.70;99.90;;;;;;5073382;28;20053;-78
2023/05/25 00:51:38;;;;;;;14.45;6.13;;;11.60;99.90;;;;;;5075413;28;20127;-78
2023/05/25 00:54:05;;;;;;;21.88;6.40;;;11.60;99.90;;;;;;5074966;28;20383;-78
2023/05/25 00:56:31;;;;;;;20.13;5.75;;;11.60;99.90;;;;;;5074406;28;20433;-78
2023/05/25 00:58:58;;;;;;;18.27;6.00;;;11.50;99.90;;;;;;5057802;28;20047;-79
2023/05/25 01:01:25;;;;;;;17.90;6.13;;;11.50;99.90;;;;;;5057766;28;20090;-78
2023/05/25 01:03:52;;;;;;;18.35;6.20;;;11.50;99.90;;;;;;5073747;28;20049;-80
2023/05/25 01:06:19;;;;;;;17.52;6.50;;;11.50;99.90;;;;;;5074128;28;20040;-79
2023/05/25 01:08:46;;;;;;;17.42;6.10;;;11.40;99.90;;;;;;5074315;28;20041;-78
2023/05/25 01:11:15;;;;;;;18.10;6.75;;;11.40;99.90;;;;;;5057097;28;20490;-78
2023/05/25 01:13:42;;;;;;;13.75;5.80;;;11.40;99.90;;;;;;5073909;28;20459;-79
2023/05/25 01:16:09;;;;;;;17.95;6.15;;;11.30;99.90;;;;;;5056400;28;20102;-78
2023/05/25 01:18:36;;;;;;;14.90;6.47;;;11.20;99.90;;;;;;5057552;28;20382;-78
2023/05/25 01:21:11;;;;;;;14.35;5.70;;;11.20;99.90;;;;;;5057525;28;20048;-78
2023/05/25 01:23:38;;;;;;;21.13;6.78;;;11.10;99.90;;;;;;5072541;28;20041;-78
2023/05/25 01:26:05;;;;;;;17.77;6.43;;;11.10;99.90;;;;;;5057553;28;20036;-77
2023/05/25 01:28:32;;;;;;;15.55;6.22;;;11.00;99.90;;;;;;5074814;28;20478;-78
2023/05/25 01:30:58;;;;;;;13.05;5.13;;;11.00;99.90;;;;;;5073793;28;20070;-78
2023/05/25 01:33:25;;;;;;;16.55;5.68;;;11.00;99.90;;;;;;5073676;28;20391;-77
2023/05/25 01:35:52;;;;;;;20.50;5.75;;;11.00;99.90;;;;;;5073041;28;20044;-78
2023/05/25 01:38:18;;;;;;;18.83;6.20;;;11.00;99.90;;;;;;5074963;28;20454;-77
2023/05/25 01:40:45;;;;;;;17.95;6.40;;;11.00;99.90;;;;;;5072993;28;20036;-79
2023/05/25 01:43:12;;;;;;;13.02;5.80;;;11.00;99.90;;;;;;5053545;28;20341;-79
2023/05/25 01:45:38;;;;;;;19.65;6.20;;;10.90;99.90;;;;;;5054294;28;20041;-78
2023/05/25 01:48:06;;;;;;;12.40;5.03;;;10.90;99.90;;;;;;5020702;28;20057;-78
2023/05/25 01:50:32;;;;;;;17.52;5.68;;;10.90;99.90;;;;;;5036016;28;20053;-78
2023/05/25 01:52:59;;;;;;;16.70;5.90;;;10.90;99.90;;;;;;5054397;28;20037;-78
2023/05/25 01:55:27;;;;;;;17.38;6.28;;;10.90;99.90;;;;;;5036644;28;20040;-78
2023/05/25 01:57:56;;;;;;;22.42;7.75;;;10.80;99.90;;;;;;5036198;28;20123;-79
2023/05/25 02:00:23;;;;;;;14.73;6.18;;;10.80;99.90;;;;;;5036949;28;20045;-78
2023/05/25 02:02:50;;;;;;;16.70;6.88;;;10.80;99.90;;;;;;5053381;28;20071;-78
2023/05/25 02:05:17;;;;;;;17.20;5.93;;;10.80;99.90;;;;;;5036560;28;20037;-78
2023/05/25 02:07:44;;;;;;;17.10;6.65;;;10.80;99.90;;;;;;5020685;28;20052;-78
2023/05/25 02:10:11;;;;;;;17.63;6.47;;;10.90;99.90;;;;;;5035776;28;20111;-78
2023/05/25 02:12:37;;;;;;;18.63;6.40;;;10.90;99.90;;;;;;5037100;28;20125;-78
2023/05/25 02:15:04;;;;;;;19.40;6.28;;;10.80;99.90;;;;;;5036695;28;20499;-77
2023/05/25 02:17:31;;;;;;;19.98;6.95;;;10.80;99.90;;;;;;5035466;28;20487;-77
2023/05/25 02:19:58;;;;;;;18.27;5.82;;;10.80;99.90;;;;;;5036498;28;20459;-77
2023/05/25 02:22:25;;;;;;;19.27;6.47;;;10.90;99.90;;;;;;5035456;28;20060;-78
2023/05/25 02:24:51;;;;;;;23.50;6.57;;;10.80;99.90;;;;;;5053805;28;20448;-78
2023/05/25 02:27:19;;;;;;;17.70;7.00;;;10.90;99.90;;;;;;5037338;28;20083;-77
2023/05/25 02:29:46;;;;;;;21.67;7.53;;;10.80;99.90;;;;;;5019456;28;20491;-77
2023/05/25 02:32:13;;;;;;;19.20;6.72;;;10.80;99.90;;;;;;5054220;28;20052;-78
2023/05/25 02:34:40;;;;;;;18.92;6.55;;;10.80;99.90;;;;;;5036162;28;20422;-78
2023/05/25 02:37:07;;;;;;;18.70;6.93;;;10.80;99.90;;;;;;5053119;28;20120;-79
2023/05/25 02:39:33;;;;;;;22.50;7.25;;;10.90;99.90;;;;;;5036486;28;20041;-78
2023/05/25 02:42:00;;;;;;;20.63;7.32;;;10.90;99.90;;;;;;5055060;28;20102;-79
2023/05/25 02:44:27;;;;;;;15.20;6.95;;;10.90;99.90;;;;;;5071657;28;20044;-78
2023/05/25 02:46:53;;;;;;;17.75;7.05;;;10.90;99.90;;;;;;5075209;28;20040;-78
2023/05/25 02:49:22;;;;;;;25.50;7.80;;;10.90;99.90;;;;;;5075885;28;20047;-78
2023/05/25 02:51:48;;;;;;;19.58;8.32;;;11.00;99.90;;;;;;5077688;28;20048;-79
2023/05/25 02:54:16;;;;;;;18.48;7.50;;;11.10;99.90;;;;;;5076373;28;20040;-78
2023/05/25 02:56:43;;;;;;;18.42;7.45;;;11.10;99.90;;;;;;5075632;28;20064;-78
2023/05/25 02:59:12;;;;;;;21.77;7.13;;;11.20;99.90;;;;;;5076906;28;20044;-79
2023/05/25 03:01:39;;;;;;;22.98;7.53;;;11.20;99.90;;;;;;5076640;28;20036;-78
2023/05/25 03:04:06;;;;;;;19.75;7.32;;;11.20;99.90;;;;;;5058618;28;20121;-79
2023/05/25 03:06:36;;;;;;;20.30;7.28;;;11.20;99.90;;;;;;5076442;28;20058;-78
2023/05/25 03:09:10;;;;;;;22.88;6.85;;;11.20;99.90;;;;;;5059736;28;20218;-78
2023/05/25 03:11:38;;;;;;;23.98;6.90;;;11.20;99.90;;;;;;5076206;28;20064;-79
2023/05/25 03:14:04;;;;;;;17.13;6.55;;;11.40;99.90;;;;;;5075702;28;20079;-79
2023/05/25 03:16:35;;;;;;;22.05;6.85;;;11.40;99.90;;;;;;5074774;28;20040;-79
2023/05/25 03:19:04;;;;;;;13.68;6.47;;;11.50;99.90;;;;;;5076132;28;20045;-79
2023/05/25 03:21:33;;;;;;;16.27;6.57;;;11.60;99.90;;;;;;5076682;28;20041;-78
2023/05/25 03:23:59;;;;;;;18.02;7.05;;;11.60;99.90;;;;;;5075800;28;20060;-78
2023/05/25 03:26:27;;;;;;;24.60;8.10;;;11.60;99.90;;;;;;5076208;28;20037;-79
2023/05/25 03:28:54;;;;;;;24.85;8.23;;;11.60;99.90;;;;;;5075250;28;20046;-79
2023/05/25 03:31:21;;;;;;;21.83;7.55;;;11.60;99.90;;;;;;5076014;28;20048;-78
2023/05/25 03:33:48;;;;;;;19.80;7.18;;;11.60;99.90;;;;;;5059540;28;20390;-79
2023/05/25 03:36:16;;;;;;;24.42;7.43;;;11.60;99.90;;;;;;5075041;28;20445;-78
2023/05/25 03:38:43;;;;;;;21.92;8.32;;;11.60;99.90;;;;;;5076986;28;20048;-78
2023/05/25 03:41:10;;;;;;;24.92;7.55;;;11.60;99.90;;;;;;5075666;28;20558;-78
2023/05/25 03:43:37;;;;;;;20.33;7.97;;;11.70;99.90;;;;;;5075535;28;20056;-77
2023/05/25 03:46:05;;;;;;;27.02;7.35;;;11.60;99.90;;;;;;5075767;28;20108;-79
2023/05/25 03:48:32;;;;;;;18.98;7.07;;;11.70;99.90;;;;;;5073109;28;20068;-78
2023/05/25 03:50:59;;;;;;;22.30;7.85;;;11.70;99.90;;;;;;5055510;28;20120;-79
2023/05/25 03:53:26;;;;;;;19.63;7.40;;;11.70;99.90;;;;;;5056294;28;20383;-78
2023/05/25 03:55:52;;;;;;;19.48;7.32;;;11.70;99.90;;;;;;5057369;28;20037;-81
2023/05/25 03:58:19;;;;;;;28.85;7.95;;;11.70;99.90;;;;;;5038443;28;20371;-78
2023/05/25 04:00:48;;;;;;;19.45;7.70;;;11.70;99.90;;;;;;5054929;28;20087;-78
2023/05/25 04:03:15;;;;;;;27.88;8.43;;;11.80;99.90;;;;;;5055211;28;20108;-79
2023/05/25 04:05:42;;;;;;;23.73;7.60;;;12.00;99.90;;;;;;5056690;28;20033;-77
2023/05/25 04:08:09;;;;;;;23.02;7.32;;;12.00;99.90;;;;;;5055542;28;20055;-78
2023/05/25 04:10:36;;;;;;;19.13;7.28;;;12.00;99.90;;;;;;5053954;28;20135;-78
2023/05/25 04:13:03;;;;;;;21.50;7.30;;;12.10;99.90;;;;;;5056022;28;20116;-79
2023/05/25 04:15:29;;;;;;;19.45;7.28;;;12.10;99.90;;;;;;5054496;28;20084;-78
2023/05/25 04:18:10;;;;;;;20.25;6.90;;;12.10;99.90;;;;;;5055235;28;20049;-78
2023/05/25 04:20:36;;;;;;;19.17;7.15;;;12.20;99.90;;;;;;5054260;28;20044;-77
2023/05/25 04:23:05;;;;;;;17.63;6.47;;;12.20;99.90;;;;;;5053875;28;20044;-78
2023/05/25 04:25:32;;;;;;;22.58;7.43;;;12.30;99.90;;;;;;5054971;28;20364;-78
2023/05/25 04:27:59;;;;;;;22.27;7.30;;;12.30;99.90;;;;;;5068427;28;20095;-78
2023/05/25 04:30:43;;;;;;;18.05;7.22;;;12.30;99.90;;;;;;5073550;28;20049;-78
2023/05/25 04:33:28;;;;;;;18.40;8.02;;;12.40;99.90;;;;;;5074914;28;20553;-77
2023/05/25 04:36:00;;;;;;;19.98;7.40;;;12.30;99.90;;;;;;5073670;28;20079;-79
2023/05/25 04:38:29;;;;;;;22.13;7.05;;;12.30;99.90;;;;;;5074838;28;20049;-78
2023/05/25 04:40:57;;;;;;;20.08;7.82;;;12.30;99.90;;;;;;5071777;28;20050;-78
2023/05/25 04:43:26;;;;;;;22.73;8.00;;;12.30;99.90;;;;;;5037159;28;20131;-78
2023/05/25 04:45:53;;;;;;;27.30;8.25;;;12.40;99.90;;;;;;5038105;28;20044;-78
2023/05/25 04:48:23;;;;;;;20.38;7.63;;;12.40;99.90;;;;;;5038213;28;20055;-79
2023/05/25 04:50:51;;;;;;;24.70;8.02;;;12.50;99.90;;;;;;5035929;28;20110;-78
2023/05/25 04:53:19;;;;;;;22.70;7.95;;;12.50;99.90;;;;;;5037955;28;20372;-78
2023/05/25 04:55:46;;;;;;;27.33;7.40;;;12.50;99.90;;;;;;5020520;28;20052;-77
2023/05/25 04:58:13;;;;;;;21.73;8.10;;;12.60;99.90;;;;;;5037864;28;20476;-79
2023/05/25 05:00:41;;;;;;;18.60;8.13;;;12.50;99.90;;;;;;5037316;28;20502;-79
2023/05/25 05:03:08;;;;;;;16.63;7.35;;;12.60;99.90;;;;;;5036762;28;20045;-79
2023/05/25 05:05:35;;;;;;;18.90;7.28;;;12.60;99.90;;;;;;5055018;28;20071;-79
2023/05/25 05:08:06;;;;;;;29.58;9.60;;;12.60;99.90;;;;;;5037665;28;20052;-79
2023/05/25 05:10:33;;;;;;;16.08;7.28;;;12.60;99.90;;;;;;5018757;28;20379;-78
2023/05/25 05:13:01;;;;;;;25.35;8.02;;;12.70;99.90;;;;;;5021551;28;20464;-78
2023/05/25 05:15:28;;;;;;;24.33;8.25;;;12.80;99.90;;;;;;5034974;28;20045;-79
2023/05/25 05:17:55;;;;;;;28.00;7.90;;;12.80;99.90;;;;;;5017240;28;20046;-78
2023/05/25 05:20:23;;;;;;;18.95;7.63;;;12.90;99.90;;;;;;5017286;28;20099;-79
2023/05/25 05:22:50;;;;;;;23.75;7.97;;;12.90;99.90;;;;;;5016497;28;20480;-78
2023/05/25 05:25:16;;;;;;;22.85;7.45;;;12.90;99.90;;;;;;5017545;28;20464;-78
2023/05/25 05:27:44;;;;;;;27.17;7.82;;;13.00;99.90;;;;;;5017602;28;20072;-79
2023/05/25 05:30:16;;;;;;;20.73;7.68;;;13.00;99.90;;;;;;5016466;28;20053;-78
2023/05/25 05:32:44;;;;;;;18.88;7.07;;;13.00;99.90;;;;;;5001264;28;20056;-79
2023/05/25 05:35:13;;;;;;;28.13;7.80;;;13.10;99.90;;;;;;5017473;28;20107;-78
2023/05/25 05:37:44;;;;;;;19.30;7.05;;;13.10;99.90;;;;;;5016730;28;20480;-79
2023/05/25 05:40:11;;;;;;;23.50;7.78;;;13.10;99.90;;;;;;5000733;28;20048;-78
2023/05/25 05:42:41;;;;;;;18.35;6.40;;;13.20;99.90;;;;;;5044416;28;20072;-79
2023/05/25 05:45:08;;;;;;;18.77;6.75;;;13.20;99.90;;;;;;5037202;28;20045;-78
2023/05/25 05:47:36;;;;;;;18.55;6.63;;;13.30;99.90;;;;;;5053627;28;20118;-78
2023/05/25 05:50:03;;;;;;;15.07;6.38;;;13.30;99.90;;;;;;5052636;28;20049;-78
2023/05/25 05:52:32;;;;;;;20.70;6.88;;;13.40;99.90;;;;;;5053194;28;20055;-78
2023/05/25 05:54:58;;;;;;;18.85;6.53;;;13.50;99.90;;;;;;5053670;28;20414;-78
2023/05/25 05:57:27;;;;;;;19.27;6.82;;;13.50;99.90;;;;;;5052459;28;20387;-78
2023/05/25 05:59:54;;;;;;;21.08;6.65;;;13.50;99.90;;;;;;5053491;28;20041;-79
2023/05/25 06:02:20;;;;;;;21.80;7.35;;;13.60;99.90;;;;;;5052190;28;20044;-77
2023/05/25 06:04:47;;;;;;;24.83;7.10;;;13.60;99.90;;;;;;5053545;28;20049;-78
2023/05/25 06:07:14;;;;;;;22.70;7.43;;;13.60;99.90;;;;;;5053517;28;20068;-78
2023/05/25 06:09:41;;;;;;;19.67;6.70;;;13.70;99.90;;;;;;5052420;28;20056;-77
2023/05/25 06:12:08;;;;;;;21.35;5.85;;;13.70;99.90;;;;;;5036256;28;20071;-77
2023/05/25 06:14:35;;;;;;;19.65;6.72;;;13.70;99.90;;;;;;5036653;28;20056;-77
2023/05/25 06:17:03;;;;;;;17.90;6.05;;;13.80;99.90;;;;;;5067656;28;20051;-78
2023/05/25 06:19:30;;;;;;;14.27;5.50;;;13.90;99.90;;;;;;5056610;28;20106;-78
2023/05/25 06:21:56;;;;;;;23.75;5.78;;;14.00;99.90;;;;;;5074210;28;20056;-78
2023/05/25 06:24:23;;;;;;;19.70;5.93;;;14.00;99.90;;;;;;5076166;28;20071;-77
2023/05/25 06:26:50;;;;;;;19.08;5.53;;;14.00;99.90;;;;;;5078217;28;20048;-78
2023/05/25 06:29:18;;;;;;;14.50;5.03;;;14.00;99.90;;;;;;5076023;28;20467;-78
2023/05/25 06:31:45;;;;;;;15.07;4.43;;;14.00;99.90;;;;;;5076608;28;20140;-78
2023/05/25 06:34:11;;;;;;;17.38;4.72;;;14.10;99.90;;;;;;5077323;28;20471;-78
2023/05/25 06:36:38;;;;;;;13.32;4.28;;;14.10;99.90;;;;;;5075954;28;20528;-77
2023/05/25 06:39:07;;;;;;;13.68;3.95;;;14.10;99.90;;;;;;5077107;28;20056;-78
2023/05/25 06:41:34;;;;;;;17.15;5.22;;;14.10;99.90;;;;;;5059951;28;20499;-77
2023/05/25 06:44:01;;;;;;;11.07;4.10;;;14.20;99.90;;;;;;5076919;28;20115;-77
2023/05/25 06:46:31;;;;;;;18.40;4.03;;;14.30;99.90;;;;;;5076938;28;20055;-78
2023/05/25 06:48:59;;;;;;;15.27;3.70;;;14.20;99.90;;;;;;5059585;28;20546;-78
2023/05/25 06:51:26;;;;;;;12.15;3.88;;;14.20;99.90;;;;;;5076758;28;20053;-78
2023/05/25 06:53:53;;;;;;;15.00;4.07;;;14.20;99.90;;;;;;5077400;28;20083;-78
2023/05/25 06:56:20;;;;;;;18.00;3.45;;;14.30;99.90;;;;;;5076724;28;20422;-78
2023/05/25 06:58:47;;;;;;;18.77;4.47;;;14.30;99.90;;;;;;5077783;28;20064;-79
2023/05/25 07:01:13;;;;;;;11.63;3.58;;;14.40;99.90;;;;;;5077677;28;20064;-79
2023/05/25 07:03:40;;;;;;;13.25;4.03;;;14.60;99.90;;;;;;5076818;28;20336;-79
2023/05/25 07:06:07;;;;;;;13.48;3.72;;;14.70;99.90;;;;;;5076456;28;20045;-78
2023/05/25 07:08:35;;;;;;;12.57;3.72;;;14.70;99.90;;;;;;5077000;28;20541;-78
2023/05/25 07:11:01;;;;;;;11.35;3.38;;;14.70;99.90;;;;;;5076042;28;20083;-79
2023/05/25 07:13:28;;;;;;;12.98;3.78;;;14.70;99.90;;;;;;5077405;28;20106;-79
2023/05/25 07:15:55;;;;;;;15.52;3.78;;;14.80;99.90;;;;;;5075403;28;20048;-79
2023/05/25 07:18:21;;;;;;;17.55;3.55;;;14.80;99.90;;;;;;5059873;28;20463;-78
2023/05/25 07:20:48;;;;;;;10.80;3.38;;;14.90;99.90;;;;;;5076092;28;20054;-79
2023/05/25 07:23:15;;;;;;;10.85;3.53;;;14.90;99.90;;;;;;5076175;28;20072;-79
2023/05/25 07:25:41;;;;;;;16.38;3.67;;;15.10;99.90;;;;;;5076414;28;20051;-79
2023/05/25 07:28:08;;;;;;;19.40;3.65;;;15.20;99.90;;;;;;5076407;28;20410;-78
2023/05/25 07:30:35;;;;;;;18.95;3.50;;;15.20;99.90;;;;;;5075295;28;20044;-78
2023/05/25 07:33:02;;;;;;;10.65;3.00;;;15.30;99.90;;;;;;5075729;28;20044;-79
2023/05/25 07:35:29;;;;;;;12.23;3.35;;;15.40;99.90;;;;;;5076996;28;20044;-79
2023/05/25 07:37:55;;;;;;;12.00;3.72;;;15.50;99.90;;;;;;5076988;28;20048;-78
2023/05/25 07:40:22;;;;;;;12.13;3.25;;;15.60;99.90;;;;;;5076450;28;20462;-79
2023/05/25 07:42:49;;;;;;;18.02;3.40;;;15.70;99.90;;;;;;5058016;28;20119;-78
2023/05/25 07:45:15;;;;;;;11.15;3.40;;;15.80;99.90;;;;;;5039685;28;20076;-78
2023/05/25 07:47:42;;;;;;;16.30;3.40;;;16.00;99.90;;;;;;5043637;28;20074;-77
2023/05/25 07:50:09;;;;;;;10.20;3.22;;;16.20;99.90;;;;;;5035487;28;20111;-78
2023/05/25 07:52:37;;;;;;;14.75;3.42;;;16.40;99.90;;;;;;5036875;28;20041;-79
2023/05/25 07:55:03;;;;;;;10.30;3.20;;;16.30;99.90;;;;;;5021586;28;20106;-77
2023/05/25 07:57:30;;;;;;;15.63;3.50;;;16.50;99.90;;;;;;5055514;28;20052;-77
2023/05/25 07:59:57;;;;;;;14.38;3.75;;;16.70;99.90;;;;;;5056554;28;20045;-77
2023/05/25 08:02:24;;;;;;;10.57;3.25;;;16.90;99.90;;;;;;5035625;28;20150;-78
2023/05/25 08:04:50;;;;;;;12.82;3.22;;;17.20;99.90;;;;;;5036733;28;20033;-78
2023/05/25 08:07:18;;;;;;;14.95;5.35;;;17.70;99.90;;;;;;5036481;28;20052;-78
2023/05/25 08:09:45;;;;;;;15.60;3.33;;;18.00;99.90;;;;;;5035037;28;20041;-78
2023/05/25 08:12:12;;;;;;;12.45;3.80;;;18.10;99.90;;;;;;5018698;28;20053;-77
2023/05/25 08:14:58;;;;;;;10.55;3.03;;;17.80;99.90;;;;;;5036509;28;20041;-78
2023/05/25 08:17:25;;;;;;;23.10;4.28;;;18.00;99.90;;;;;;5053577;28;20123;-78
2023/05/25 08:19:52;;;;;;;16.60;3.83;;;18.20;99.90;;;;;;5056367;28;20049;-78
2023/05/25 08:22:18;;;;;;;13.82;3.60;;;18.40;99.90;;;;;;5037014;28;20079;-78
2023/05/25 08:24:45;;;;;;;13.18;3.33;;;18.40;99.90;;;;;;5057005;28;20128;-78
2023/05/25 08:27:12;;;;;;;12.98;3.60;;;18.70;99.90;;;;;;5051493;28;20430;-82
2023/05/25 08:29:39;;;;;;;15.73;3.63;;;18.70;99.90;;;;;;5035128;28;20060;-84
2023/05/25 08:32:05;;;;;;;11.85;3.55;;;18.60;99.90;;;;;;5016814;28;20046;-86
2023/05/25 08:34:32;;;;;;;11.32;3.40;;;18.50;99.90;;;;;;5002074;28;20053;-83
2023/05/25 08:37:00;;;;;;;12.88;3.13;;;18.70;99.90;;;;;;5001551;28;20080;-82
2023/05/25 08:39:26;;;;;;;12.35;3.15;;;18.80;99.90;;;;;;5027850;28;20102;-79
2023/05/25 08:41:53;;;;;;;14.30;3.50;;;18.80;99.90;;;;;;5053532;28;20139;-86
2023/05/25 08:44:20;;;;;;;14.10;3.05;;;18.80;99.90;;;;;;5058907;28;20041;-80
2023/05/25 08:46:47;;;;;;;15.30;3.40;;;18.80;99.90;;;;;;5053990;28;20535;-88
2023/05/25 08:49:14;;;;;;;13.15;3.67;;;18.70;99.90;;;;;;5053142;28;20106;-80
2023/05/25 08:51:42;;;;;;;13.90;3.28;;;18.70;99.90;;;;;;5054087;28;20057;-80
2023/05/25 08:54:11;;;;;;;18.63;3.30;;;18.90;99.90;;;;;;5054395;28;20124;-80
2023/05/25 08:56:38;;;;;;;15.95;3.08;;;19.10;99.90;;;;;;5052525;28;20067;-80
2023/05/25 08:59:05;;;;;;;18.15;4.10;;;19.30;99.90;;;;;;5053672;28;20049;-80
2023/05/25 09:01:32;;;;;;;14.70;3.45;;;19.30;99.90;;;;;;5054299;28;20087;-80
2023/05/25 09:03:59;;;;;;;15.30;5.07;;;19.40;99.90;;;;;;5053735;28;20356;-79
2023/05/25 09:06:27;;;;;;;16.90;3.50;;;19.50;99.90;;;;;;5054866;28;20033;-79
2023/05/25 09:08:53;;;;;;;12.10;3.08;;;19.70;99.90;;;;;;5052943;28;20056;-80
2023/05/25 09:11:20;;;;;;;14.43;3.53;;;20.00;99.90;;;;;;5052749;28;20045;-80
2023/05/25 09:14:04;;;;;;;11.13;3.70;;;20.20;99.90;;;;;;5065308;28;20105;-80
2023/05/25 09:16:32;;;;;;;12.90;3.63;;;20.20;99.90;;;;;;5051377;28;20479;-80
2023/05/25 09:18:58;;;;;;;9.93;3.40;;;20.00;99.90;;;;;;5054068;28;20124;-81
2023/05/25 09:21:25;;;;;;;12.10;3.45;;;19.60;99.90;;;;;;5062580;28;20111;-80
2023/05/25 09:23:52;;;;;;;17.35;3.65;;;18.90;99.90;;;;;;5065069;28;20065;-80
2023/05/25 09:26:20;;;;;;;13.23;3.60;;;18.70;99.90;;;;;;5052943;28;20049;-79
2023/05/25 09:28:46;;;;;;;26.13;4.55;;;19.00;99.90;;;;;;5057755;28;20131;-80
2023/05/25 09:31:13;;;;;;;14.73;3.78;;;19.30;99.90;;;;;;5072911;28;20135;-80
2023/05/25 09:33:40;;;;;;;11.73;3.50;;;19.40;99.90;;;;;;5073261;28;20139;-79
2023/05/25 09:36:07;;;;;;;26.40;4.60;;;19.50;99.90;;;;;;5071371;28;20114;-79
2023/05/25 09:38:33;;;;;;;14.75;3.35;;;19.50;99.90;;;;;;5073460;28;20064;-80
2023/05/25 09:41:00;;;;;;;12.30;3.17;;;19.30;99.90;;;;;;5069565;28;20048;-79
2023/05/25 09:43:27;;;;;;;13.70;3.60;;;19.20;99.90;;;;;;5052451;28;20049;-80
2023/05/25 09:46:08;;;;;;;16.45;3.42;;;19.30;99.90;;;;;;5053946;28;20383;-80
2023/05/25 09:48:35;;;;;;;10.57;3.22;;;19.40;99.90;;;;;;5035899;28;20143;-79
2023/05/25 09:51:02;;;;;;;10.48;3.15;;;19.50;99.90;;;;;;5051903;28;20041;-79
2023/05/25 09:53:29;;;;;;;14.18;2.92;;;19.80;99.90;;;;;;5053168;28;20491;-80
2023/05/25 09:55:55;;;;;;;10.00;3.00;;;20.30;99.90;;;;;;5032386;28;20037;-80
2023/05/25 09:58:25;;;;;;;14.82;3.83;;;20.60;99.90;;;;;;5016073;28;20041;-80
2023/05/25 10:00:53;;;;;;;14.13;3.55;;;20.60;99.90;;;;;;5033675;28;20045;-79
2023/05/25 10:03:20;;;;;;;10.05;3.28;;;20.20;99.90;;;;;;5032504;28;20468;-80
2023/05/25 10:05:47;;;;;;;13.32;3.33;;;19.80;99.90;;;;;;5052942;28;20067;-79
2023/05/25 10:08:13;;;;;;;15.88;3.78;;;19.60;99.90;;;;;;5036664;28;20116;-80
2023/05/25 10:10:40;;;;;;;21.67;4.30;;;19.60;99.90;;;;;;5051561;28;20091;-79
2023/05/25 10:13:08;;;;;;;15.80;3.58;;;19.60;99.90;;;;;;5036050;28;20044;-80
2023/05/25 10:15:35;;;;;;;16.42;3.10;;;19.60;99.90;;;;;;5052181;28;20041;-80
2023/05/25 10:18:01;;;;;;;12.60;3.20;;;19.40;99.90;;;;;;5035785;28;20455;-80
2023/05/25 10:20:28;;;;;;;13.98;3.33;;;19.30;99.90;;;;;;5037299;28;20045;-80
2023/05/25 10:22:57;;;;;;;10.43;3.38;;;19.20;99.90;;;;;;4999090;28;20049;-80
2023/05/25 10:25:24;;;;;;;17.55;3.95;;;19.20;99.90;;;;;;5031002;28;20061;-80
2023/05/25 10:27:51;;;;;;;11.45;3.42;;;19.30;99.90;;;;;;5053257;28;20037;-80
2023/05/25 10:30:20;;;;;;;9.52;2.85;;;19.40;99.90;;;;;;5038070;28;20041;-80
2023/05/25 10:32:47;;;;;;;11.35;3.35;;;19.50;99.90;;;;;;5020714;28;20112;-80
2023/05/25 10:35:13;;;;;;;12.40;3.10;;;19.80;99.90;;;;;;5040033;28;20068;-79
2023/05/25 10:37:40;;;;;;;12.65;3.53;;;20.10;99.90;;;;;;5011161;28;20475;-80
2023/05/25 10:40:07;;;;;;;14.13;3.50;;;20.30;99.90;;;;;;5040443;28;20092;-79
2023/05/25 10:42:35;;;;;;;12.02;2.80;;;20.40;99.90;;;;;;5031940;28;20045;-80
2023/05/25 10:45:02;;;;;;;9.70;2.80;;;20.50;99.90;;;;;;5027271;28;20049;-79
2023/05/25 10:47:29;;;;;;;11.20;3.28;;;20.50;99.90;;;;;;5052324;28;20470;-80
2023/05/25 10:49:56;;;;;;;11.75;3.17;;;20.60;99.90;;;;;;5051129;28;20047;-80
2023/05/25 10:52:23;;;;;;;12.73;2.88;;;20.60;99.90;;;;;;5053675;28;20051;-80
2023/05/25 10:54:50;;;;;;;11.05;3.30;;;20.60;99.90;;;;;;5027013;28;20037;-80
2023/05/25 10:57:17;;;;;;;11.63;3.22;;;20.50;99.90;;;;;;5032016;28;20064;-80
2023/05/25 10:59:44;;;;;;;12.18;3.42;;;20.50;99.90;;;;;;5023280;28;20450;-82
2023/05/25 11:02:11;;;;;;;12.82;2.85;;;20.40;99.90;;;;;;5052273;28;20116;-80
2023/05/25 11:04:38;;;;;;;13.35;3.45;;;20.60;99.90;;;;;;5035481;28;20545;-80
2023/05/25 11:07:07;;;;;;;9.70;2.90;;;20.50;99.90;;;;;;5036297;28;20037;-80
2023/05/25 11:09:37;;;;;;;18.17;3.42;;;20.70;99.90;;;;;;5049882;28;20057;-80
2023/05/25 11:12:05;;;;;;;11.07;3.55;;;21.20;99.90;;;;;;5036419;28;20050;-80
2023/05/25 11:14:32;;;;;;;11.75;3.30;;;21.30;99.90;;;;;;5023891;28;20049;-81
2023/05/25 11:16:58;;;;;;;10.73;2.78;;;21.90;99.90;;;;;;5040721;28;20073;-80
2023/05/25 11:19:25;;;;;;;16.67;3.20;;;22.10;99.90;;;;;;5036844;28;20037;-80
2023/05/25 11:21:53;;;;;;;13.48;3.78;;;22.20;99.90;;;;;;5035650;28;20364;-80
2023/05/25 11:24:19;;;;;;;13.02;4.20;;;22.80;99.90;;;;;;5037076;28;20140;-81
2023/05/25 11:26:46;;;;;;;12.30;4.53;;;23.40;99.90;;;;;;5056191;28;20367;-79
2023/05/25 11:29:13;;;;;;;10.88;4.10;;;23.30;99.90;;;;;;5019566;28;20475;-80
2023/05/25 11:31:39;;;;;;;10.85;3.28;;;23.30;99.90;;;;;;5018436;28;20042;-80
2023/05/25 11:34:10;;;;;;;13.07;4.13;;;23.10;99.90;;;;;;5019835;28;20052;-80
2023/05/25 11:36:38;;;;;;;11.02;3.42;;;22.40;99.90;;;;;;5017799;28;20077;-80
2023/05/25 11:39:05;;;;;;;14.85;3.80;;;21.90;99.90;;;;;;5018231;28;20133;-79
2023/05/25 11:41:42;;;;;;;9.90;3.30;;;21.60;99.90;;;;;;5035972;28;20092;-79
2023/05/25 11:44:09;;;;;;;14.80;3.25;;;21.40;99.90;;;;;;5035518;28;20128;-78
2023/05/25 11:46:37;;;;;;;10.63;3.17;;;21.30;99.90;;;;;;5036159;28;20049;-79
2023/05/25 11:49:04;;;;;;;9.45;3.03;;;21.20;99.90;;;;;;5035288;28;20037;-80
2023/05/25 11:51:31;;;;;;;15.20;3.60;;;21.20;99.90;;;;;;5035792;28;20057;-80
2023/05/25 11:53:57;;;;;;;15.27;5.05;;;21.30;99.90;;;;;;5036028;28;20048;-80
2023/05/25 11:56:24;;;;;;;12.70;4.90;;;21.20;99.90;;;;;;5035339;28;20049;-80
2023/05/25 11:59:01;;;;;;;11.43;3.35;;;21.10;99.90;;;;;;5036492;28;20052;-80
2023/05/25 12:01:30;;;;;;;26.90;11.23;;;20.90;99.90;;;;;;5021985;28;20133;-79
2023/05/25 12:03:57;;;;;;;39.05;18.35;;;20.80;99.90;;;;;;5037576;28;20455;-79
2023/05/25 12:06:27;;;;;;;24.73;11.90;;;20.80;99.90;;;;;;5020746;28;20411;-80
2023/05/25 12:08:54;;;;;;;27.83;11.07;;;20.80;99.90;;;;;;5023245;28;20052;-79
2023/05/25 12:11:21;;;;;;;92.55;51.88;;;20.70;99.90;;;;;;5045513;28;20037;-79
2023/05/25 12:13:48;;;;;;;16.40;8.45;;;20.50;99.90;;;;;;5040644;28;20059;-80
2023/05/25 12:16:15;;;;;;;26.92;9.27;;;20.60;99.90;;;;;;5055432;28;20040;-80
2023/05/25 12:18:42;;;;;;;17.77;7.57;;;20.90;99.90;;;;;;5022233;28;20464;-80
2023/05/25 12:21:09;;;;;;;29.42;12.10;;;21.20;99.90;;;;;;5055372;28;20076;-80
2023/05/25 12:23:35;;;;;;;16.27;5.93;;;21.40;99.90;;;;;;5054981;28;20037;-81
2023/05/25 12:26:02;;;;;;;40.65;21.23;;;21.20;99.90;;;;;;5056197;28;20033;-80
2023/05/25 12:28:29;;;;;;;27.30;13.60;;;21.20;99.90;;;;;;5038734;28;20041;-80
2023/05/25 12:30:56;;;;;;;23.30;9.15;;;21.40;99.90;;;;;;5037477;28;20131;-79
2023/05/25 12:33:23;;;;;;;21.40;10.18;;;21.40;99.90;;;;;;5018196;28;20460;-80
2023/05/25 12:35:50;;;;;;;18.00;6.63;;;21.70;99.90;;;;;;5044801;28;20095;-80